Airfield :
LOGIN :

Register | Disclaimer

   EN    FR    IT 

 










Legend :    VFR   Marginal VFR   IFR   Intensive IFR   Very Intensive IFR
Visi :
Ceiling :
>= 8 km
>= 3000ft
5 to 8 km
1000 to 3000 ft
1500m to 5 km
500 to 1000 ft
800 to 1500m
200 to 500 ft
< 800m
< 200 ft
Symbols :   Thunderstorms  Fog  Heavy snow  Heavy precipitations  Wind > 20 kt
SIGMETs :     Misc.  Thunderstorms  Icing  Turbulence  Mountain Waves  Volcanic Ashes






- Airport Elevation : 3100 ft
- IATA code : NAV


LTAZ - Kapadokya

CURRENT METAR :
  • 200850Z 27003KT 210V310 9999 SCT040 01/M06 Q1025 RMK RWY29 26006KT 230V300

EXPIRED METARs :
  • 200820Z 26004KT 220V310 9999 SCT040 00/M06 Q1025 RMK RWY29 27005KT 240V310
  • 200750Z VRB02KT 9999 SCT040 M01/M06 Q1025 RMK RWY29 30004KT 240V330
  • 200720Z 27003KT 240V300 9999 SCT040 M02/M05 Q1025 RMK RWY29 VRB02KT
  • 200650Z 00000KT 9999 FEW040 M03/M05 Q1025 RMK RWY29 VRB01KT
  • 200620Z 00000KT 9999 SCT040 M04/M06 Q1024 RMK RWY29 00000KT

TAF TAF LTAZ
Valid from the 20 at 06:00 until the 21 at 06:00 UTC


200440Z 2006/2106 30007KT 9999 BKN030 BKN080
TEMPO 2006/2009 -SN
BECMG 2015/2018 2000 -SN BR SCT010 BKN025
BECMG 2021/2024 02015G25KT 8000



MET'MAP, your aeronautical weather chart ! - Copyright ORBIFLY December 2007 - Disclaimer

ORBIFLY MET'MAP TEAM :

Programming & Development : Alexandra Zaïnal
Concept & original design : Baudouin d'Aumeries
Assistance for programming : Marc-Olivier Méhu
Technical & hardware support : Manuel Goepfert

Contact : metmap@orbifly.com




SOURCES & CREDITS :

   NOAA